Terminal Aerodrome Forecast
Issued by NWS Shreveport, LA

Home | Current Version | Previous Version | Text Only | Print | Product List | Glossary On
Versions: 1 2 3 4 5 6 7 8 9 10 11 12 13 14 15 16 17 18 19 20 21 22 23 24
000
FTUS44 KSHV 231139
TAFLFK
TAF
KLFK 231139Z 2312/2412 14004KT P6SM SKC
      TEMPO 2312/2315 5SM BR
     FM231500 16011KT P6SM SKC
     FM240100 17007KT P6SM SCT250
     FM240600 19007KT 3SM BR BKN015=

USA.gov is the U.S. government's official web portal to all federal, state and local government web resources and services.